createdAt,value
2022-10-01T15:50:23.084Z,97905.78
2022-10-01T15:53:45.769Z,97909.22
2022-10-01T15:57:08.853Z,97927.22
2022-10-01T16:00:57.575Z,97937.59
2022-10-01T16:04:21.340Z,97940.34
2022-10-01T16:07:50.465Z,97942.78
2022-10-01T16:11:27.599Z,97943.13
2022-10-01T16:15:06.103Z,97948.22
2022-10-01T16:18:32.756Z,97942.78
2022-10-01T16:22:24.330Z,97945.91
2022-10-01T16:25:46.370Z,97962.03
2022-10-01T16:29:14.548Z,97965.34
2022-10-01T16:32:36.462Z,97964.41
2022-10-01T16:36:10.868Z,97969.22
2022-10-01T16:39:32.622Z,97979.28
2022-10-01T16:42:54.888Z,97981.19
2022-10-01T16:46:17.021Z,97977.84
2022-10-01T16:49:38.991Z,97974.03
2022-10-01T16:53:01.251Z,97999.16
2022-10-01T16:56:27.027Z,97997.44
2022-10-01T16:59:49.122Z,98018.22
2022-10-01T17:03:20.593Z,98018.91
2022-10-01T17:06:42.824Z,98021.09
2022-10-01T17:10:06.319Z,98024.81
2022-10-01T17:13:32.683Z,98030.66
2022-10-01T17:16:54.657Z,98039.72
2022-10-01T17:20:16.574Z,98043.97
2022-10-01T17:23:38.390Z,98063.59
2022-10-01T17:27:00.604Z,98069.00
2022-10-01T17:30:22.641Z,98057.75
2022-10-01T17:33:44.560Z,98056.44
2022-10-01T17:37:06.517Z,98072.03
2022-10-01T17:40:28.370Z,98075.78
2022-10-01T17:43:50.237Z,98086.38
2022-10-01T17:47:12.491Z,98092.69
2022-10-01T17:50:35.256Z,98089.59
2022-10-01T17:53:57.057Z,98104.34
2022-10-01T17:57:19.108Z,98117.25
2022-10-01T18:00:41.994Z,98123.13
2022-10-01T18:04:05.533Z,98122.69
2022-10-01T18:07:27.475Z,98131.19
2022-10-01T18:10:49.350Z,98135.09
2022-10-01T18:14:11.442Z,98147.03
2022-10-01T18:17:36.582Z,98153.94
2022-10-01T18:21:07.751Z,98152.19
2022-10-01T18:24:30.010Z,98156.25
2022-10-01T18:27:51.909Z,98146.47
2022-10-01T18:31:14.294Z,98163.44
2022-10-01T18:34:47.367Z,98168.09
2022-10-01T18:38:27.107Z,98174.69
2022-10-01T18:41:50.260Z,98193.69
2022-10-01T18:45:29.992Z,98191.25
2022-10-01T18:49:21.111Z,98195.09
2022-10-01T18:52:54.979Z,98206.97
2022-10-01T18:56:36.053Z,98206.94
2022-10-01T19:00:12.052Z,98216.28
2022-10-01T19:04:01.225Z,98222.63
2022-10-01T19:08:17.312Z,98222.97
2022-10-01T19:12:02.855Z,98223.56
2022-10-01T19:16:03.536Z,98232.97
2022-10-01T19:20:01.872Z,98230.44
2022-10-01T19:24:20.388Z,98235.84
2022-10-01T19:28:10.057Z,98244.56
2022-10-01T19:31:41.571Z,98249.81
2022-10-01T19:35:16.815Z,98254.63
2022-10-01T19:38:42.289Z,98256.69
2022-10-01T19:42:17.174Z,98262.31
2022-10-01T19:45:48.692Z,98257.50
2022-10-01T19:49:28.255Z,98258.56
2022-10-01T19:52:53.396Z,98253.81
2022-10-01T19:56:30.988Z,98256.56
2022-10-01T20:00:12.140Z,98268.19
2022-10-01T20:03:40.213Z,98285.19
2022-10-01T20:07:23.585Z,98295.69
2022-10-01T20:11:28.561Z,98291.88
2022-10-01T20:15:09.263Z,98292.88
2022-10-01T20:19:08.045Z,98310.06
2022-10-01T20:23:11.017Z,98313.41
2022-10-01T20:26:47.818Z,98315.47
2022-10-01T20:30:20.004Z,98322.13
2022-10-01T20:34:03.657Z,98318.78
2022-10-01T20:38:06.856Z,98335.63
2022-10-01T20:41:42.372Z,98332.38
2022-10-01T20:45:16.432Z,98344.09
2022-10-01T20:48:47.417Z,98367.22
2022-10-01T20:52:51.952Z,98373.03
2022-10-01T20:56:30.837Z,98380.94
2022-10-01T20:59:56.598Z,98373.69
2022-10-01T21:03:36.429Z,98371.38
2022-10-01T21:07:26.122Z,98373.88
2022-10-01T21:10:56.271Z,98378.69
2022-10-01T21:14:41.789Z,98386.97
2022-10-01T21:18:20.371Z,98388.31
2022-10-01T21:22:11.093Z,98410.59
2022-10-01T21:26:13.604Z,98420.97
2022-10-01T21:29:38.555Z,98423.28
2022-10-01T21:33:21.261Z,98429.31
2022-10-01T21:36:54.672Z,98430.34
2022-10-01T21:40:47.476Z,98427.88
2022-10-01T21:44:58.417Z,98432.44
2022-10-01T21:48:38.682Z,98419.13
2022-10-01T21:52:37.174Z,98413.50
2022-10-01T21:56:32.661Z,98421.41
2022-10-01T22:00:23.197Z,98419.31
2022-10-01T22:03:56.449Z,98442.63
2022-10-01T22:07:42.616Z,98438.88
2022-10-01T22:11:15.777Z,98429.09
2022-10-01T22:14:40.332Z,98435.78
2022-10-01T22:18:06.086Z,98447.00
2022-10-01T22:21:40.892Z,98449.09
2022-10-01T22:25:04.186Z,98434.78
2022-10-01T22:28:36.749Z,98454.06
2022-10-01T22:32:04.641Z,98472.59
2022-10-01T22:35:39.267Z,98478.03
2022-10-01T22:39:09.610Z,98489.47
2022-10-01T22:42:42.320Z,98498.22
2022-10-01T22:46:42.398Z,98489.47
2022-10-01T22:50:36.400Z,98491.97
2022-10-01T22:54:04.007Z,98500.72
2022-10-01T22:58:06.162Z,98500.50
2022-10-01T23:02:25.991Z,98485.31
2022-10-01T23:06:05.817Z,98492.41
2022-10-01T23:09:40.465Z,98485.94
2022-10-01T23:13:05.280Z,98495.31
2022-10-01T23:16:52.272Z,98499.25
2022-10-01T23:20:30.989Z,98499.69
2022-10-01T23:24:17.827Z,98501.13
2022-10-01T23:28:09.637Z,98509.66
2022-10-01T23:31:57.712Z,98506.97
2022-10-01T23:35:25.204Z,98506.13
2022-10-01T23:39:26.034Z,98508.81
2022-10-01T23:43:14.994Z,98506.13
2022-10-01T23:46:42.758Z,98518.63
2022-10-01T23:50:17.473Z,98528.19
2022-10-01T23:53:57.452Z,98524.50
2022-10-01T23:57:52.716Z,98520.72
